Hlavní strana
METAR-TAF:

METAR-TAF

Letiště :

Kalmar, Švédsko

zeměpisná šířka: 56-44N, zeměpisná délka: 016-18E, výška: 16 m

Aktuální stav počasí

Zpráva byla vytvořena před 13 minutami, v 22:50 UTC
Jihojihozápadní vítr 6 kt
Teplota 8°C
Vlhkost vzduchu 93%
Tlak 1035 hPa
Viditelnost: 8000 m

METAR: ESMQ 152250Z AUTO 21006KT 8000 OVC005/// 08/07 Q1035

Čas: 00:03 (23:03 UTC)

Předpověď počasí

Zpráva byla vytvořena před 2 hodinami a 33 minutami, v 20:30 UTC
Předpověď platná od 15 v 21 UTC do 15 v 23 UTC
Jižní vítr 4 kt
Viditelnost: 1200 m
Zataženo ve výšce 600 ft
kouřmo
Dočasný
od 15 v 21 UTC do 15 v 23 UTC
Viditelnost: 4000 m
Zataženo ve výšce 300 ft

TAF: ESMQ 152030Z 1521/1523 18004KT 1200 BR OVC006 TEMPO 1521/1523 4000 OVC003

Stav a předpovědi počasí z více než 4 000 letišť (zprávy METAR a TAF).

Červené a žluté tečky na mapě představují dostupné meteorologické stanice.

Když kurzor umístíte na tečku, zobrazí se název stanice.

Pak kliknutím zobrazíte stav a předpověď počasí.

Chcete-li změnit mapu, kliknutím na zelené tlačítko se znaménkem +mapu přiblížíte, kliknutím na zelené tlačítko se znaménkem – mapu oddálíte a kliknutím na zelené šipky přejdete na sousední mapy.


METAR-TAF: